createdAt,value
2023-04-17T00:00:06.256Z,99698.94
2023-04-17T00:02:40.891Z,99691.34
2023-04-17T00:05:10.085Z,99685.34
2023-04-17T00:07:41.875Z,99676.44
2023-04-17T00:10:10.667Z,99694.13
2023-04-17T00:12:38.743Z,99676.81
2023-04-17T00:15:08.647Z,99695.50
2023-04-17T00:17:36.867Z,99685.13
2023-04-17T00:20:10.135Z,99683.44
2023-04-17T00:22:39.088Z,99683.69
2023-04-17T00:25:08.071Z,99681.91
2023-04-17T00:27:36.076Z,99677.69
2023-04-17T00:30:04.852Z,99679.47
2023-04-17T00:32:33.391Z,99670.00
2023-04-17T00:35:01.898Z,99678.88
2023-04-17T00:37:29.958Z,99677.94
2023-04-17T00:39:57.855Z,99675.16
2023-04-17T00:42:26.043Z,99677.69
2023-04-17T00:44:53.997Z,99684.19
2023-04-17T00:47:22.776Z,99680.94
2023-04-17T00:49:51.697Z,99682.75
2023-04-17T00:52:30.904Z,99676.88
2023-04-17T00:55:00.694Z,99684.31
2023-04-17T00:57:28.888Z,99692.88
2023-04-17T00:59:58.419Z,99692.25
2023-04-17T01:02:27.252Z,99693.59
2023-04-17T01:04:55.834Z,99688.53
2023-04-17T01:07:24.297Z,99688.75
2023-04-17T01:09:52.409Z,99692.00
2023-04-17T01:12:25.336Z,99688.63
2023-04-17T01:14:55.306Z,99698.16
2023-04-17T01:17:26.264Z,99689.47
2023-04-17T01:19:55.727Z,99693.31
2023-04-17T01:22:23.913Z,99696.09
2023-04-17T01:24:56.532Z,99689.25
2023-04-17T01:27:27.269Z,99689.47
2023-04-17T01:29:56.034Z,99683.47
2023-04-17T01:32:24.072Z,99695.16
2023-04-17T01:34:52.207Z,99691.16
2023-04-17T01:37:20.188Z,99693.09
2023-04-17T01:39:48.008Z,99696.59
2023-04-17T01:42:16.542Z,99694.06
2023-04-17T01:44:45.073Z,99692.84
2023-04-17T01:47:13.036Z,99695.88
2023-04-17T01:49:41.552Z,99700.53
2023-04-17T01:52:09.512Z,99698.84
2023-04-17T01:54:37.761Z,99698.47
2023-04-17T01:57:05.972Z,99696.31
2023-04-17T01:59:34.006Z,99701.00
2023-04-17T02:02:01.953Z,99691.34
2023-04-17T02:04:30.227Z,99683.75
2023-04-17T02:06:58.308Z,99688.31
2023-04-17T02:09:27.106Z,99688.63
2023-04-17T02:11:55.198Z,99697.56
2023-04-17T02:14:23.073Z,99693.00
2023-04-17T02:16:50.934Z,99689.34
2023-04-17T02:19:19.014Z,99684.84
2023-04-17T02:21:46.898Z,99687.03
2023-04-17T02:24:14.742Z,99688.94
2023-04-17T02:26:43.024Z,99696.41
2023-04-17T02:29:13.863Z,99701.59
2023-04-17T02:31:42.495Z,99699.13
2023-04-17T02:34:12.766Z,99692.84
2023-04-17T02:36:42.027Z,99699.53
2023-04-17T02:39:10.280Z,99701.53
2023-04-17T02:41:41.052Z,99703.94
2023-04-17T02:44:10.385Z,99711.63
2023-04-17T02:46:38.915Z,99712.34
2023-04-17T02:49:07.116Z,99709.44
2023-04-17T02:51:35.128Z,99709.16
2023-04-17T02:54:03.545Z,99712.16
2023-04-17T02:56:32.407Z,99711.69
2023-04-17T02:59:00.288Z,99715.78
2023-04-17T03:01:28.428Z,99708.16
2023-04-17T03:03:57.468Z,99701.91
2023-04-17T03:06:26.809Z,99706.22
2023-04-17T03:08:54.792Z,99697.19
2023-04-17T03:11:23.461Z,99694.88
2023-04-17T03:13:51.406Z,99694.75
2023-04-17T03:16:19.326Z,99699.09
2023-04-17T03:18:48.238Z,99694.63
2023-04-17T03:21:16.243Z,99706.81
2023-04-17T03:23:44.127Z,99697.72
2023-04-17T03:26:14.376Z,99704.16
2023-04-17T03:28:43.043Z,99704.88
2023-04-17T03:31:11.098Z,99709.06
2023-04-17T03:33:39.316Z,99711.00
2023-04-17T03:36:07.926Z,99704.88
2023-04-17T03:38:38.531Z,99714.50
2023-04-17T03:41:10.558Z,99716.06
2023-04-17T03:43:39.120Z,99721.59
2023-04-17T03:46:09.855Z,99725.81
2023-04-17T03:48:39.323Z,99724.97
2023-04-17T03:51:07.572Z,99731.00
2023-04-17T03:53:36.860Z,99741.34
2023-04-17T03:56:09.169Z,99734.22
2023-04-17T03:58:41.869Z,99733.63
2023-04-17T04:01:12.742Z,99737.59
2023-04-17T04:03:52.552Z,99732.97
2023-04-17T04:06:22.916Z,99736.34
2023-04-17T04:08:51.533Z,99736.47
2023-04-17T04:11:19.657Z,99739.56
2023-04-17T04:13:48.218Z,99748.13
2023-04-17T04:16:16.831Z,99744.75
2023-04-17T04:18:45.397Z,99746.19
2023-04-17T04:21:16.130Z,99748.13
2023-04-17T04:23:46.132Z,99745.72
2023-04-17T04:26:17.824Z,99756.53
2023-04-17T04:28:51.801Z,99763.72
2023-04-17T04:31:30.844Z,99757.19
2023-04-17T04:34:02.360Z,99757.41
2023-04-17T04:36:31.302Z,99762.72
2023-04-17T04:39:12.159Z,99754.38
2023-04-17T04:41:46.166Z,99761.91
2023-04-17T04:44:15.439Z,99757.75
2023-04-17T04:46:46.629Z,99757.22
2023-04-17T04:49:14.706Z,99758.88
2023-04-17T04:51:42.933Z,99766.47
2023-04-17T04:54:11.411Z,99768.69
2023-04-17T04:56:51.196Z,99768.09
2023-04-17T04:59:19.452Z,99766.28
2023-04-17T05:01:57.018Z,99766.75
2023-04-17T05:04:27.372Z,99771.78
2023-04-17T05:06:59.949Z,99767.94
2023-04-17T05:09:28.667Z,99765.00
2023-04-17T05:11:59.420Z,99769.09
2023-04-17T05:14:28.458Z,99767.16
2023-04-17T05:16:56.603Z,99764.09
2023-04-17T05:19:26.148Z,99764.66
2023-04-17T05:21:59.272Z,99771.66
2023-04-17T05:24:27.449Z,99765.53
2023-04-17T05:26:55.433Z,99774.66
2023-04-17T05:29:25.383Z,99773.56
2023-04-17T05:31:55.069Z,99775.09
2023-04-17T05:35:01.901Z,99775.94
2023-04-17T05:37:31.364Z,99773.19
2023-04-17T05:40:01.414Z,99762.56
2023-04-17T05:42:30.555Z,99765.41
2023-04-17T05:44:59.014Z,99755.19
2023-04-17T05:47:27.052Z,99764.31
2023-04-17T05:49:58.310Z,99757.44
2023-04-17T05:52:29.448Z,99771.44
2023-04-17T05:54:58.272Z,99771.66
2023-04-17T05:57:26.972Z,99760.56
2023-04-17T05:59:54.899Z,99762.66
2023-04-17T06:02:23.492Z,99763.81
2023-04-17T06:04:52.627Z,99766.88
2023-04-17T06:07:20.723Z,99764.34
2023-04-17T06:09:48.827Z,99762.09
2023-04-17T06:12:17.037Z,99769.38
2023-04-17T06:14:46.356Z,99763.75
2023-04-17T06:17:17.407Z,99768.41
2023-04-17T06:19:45.881Z,99763.34
2023-04-17T06:22:13.735Z,99769.09
2023-04-17T06:24:41.732Z,99765.59
2023-04-17T06:27:10.014Z,99764.19
2023-04-17T06:29:37.985Z,99762.22
2023-04-17T06:32:06.912Z,99763.88
2023-04-17T06:34:35.127Z,99764.88
2023-04-17T06:37:03.233Z,99760.13
2023-04-17T06:39:31.906Z,99768.81
2023-04-17T06:42:03.005Z,99768.91
2023-04-17T06:44:38.015Z,99765.16
2023-04-17T06:47:13.998Z,99762.44
2023-04-17T06:49:42.068Z,99764.09
2023-04-17T06:52:10.088Z,99758.31
2023-04-17T06:54:38.777Z,99772.31
2023-04-17T06:57:09.964Z,99756.22
2023-04-17T06:59:38.535Z,99764.84
2023-04-17T07:02:06.668Z,99766.03
2023-04-17T07:04:34.840Z,99771.75
2023-04-17T07:07:02.874Z,99759.66
2023-04-17T07:09:31.126Z,99761.16
2023-04-17T07:11:59.775Z,99757.84
2023-04-17T07:14:27.738Z,99762.41
2023-04-17T07:16:56.084Z,99758.38
2023-04-17T07:19:24.176Z,99756.50
2023-04-17T07:21:52.258Z,99762.13
2023-04-17T07:24:20.280Z,99764.31
2023-04-17T07:26:49.646Z,99767.69
2023-04-17T07:29:17.878Z,99758.63
2023-04-17T07:31:47.720Z,99764.63
2023-04-17T07:34:15.736Z,99756.41
2023-04-17T07:36:44.177Z,99768.38
2023-04-17T07:39:12.347Z,99763.13
2023-04-17T07:41:40.576Z,99763.59
2023-04-17T07:44:08.536Z,99752.13
2023-04-17T07:46:36.702Z,99767.41
2023-04-17T07:49:04.667Z,99771.91
2023-04-17T07:51:32.945Z,99759.25
2023-04-17T07:54:01.618Z,99775.31
2023-04-17T07:56:31.892Z,99774.94
2023-04-17T07:59:00.118Z,99778.50
2023-04-17T08:01:28.248Z,99778.88
2023-04-17T08:03:56.610Z,99780.28
2023-04-17T08:06:24.659Z,99783.09
2023-04-17T08:08:52.636Z,99790.44
2023-04-17T08:11:21.012Z,99789.94
2023-04-17T08:13:49.051Z,99787.53
2023-04-17T08:16:17.470Z,99794.16
2023-04-17T08:18:45.528Z,99785.69
2023-04-17T08:21:13.428Z,99803.19
2023-04-17T08:23:42.087Z,99800.72
2023-04-17T08:26:10.365Z,99785.72
2023-04-17T08:28:38.659Z,99804.00
2023-04-17T08:31:08.885Z,99812.53
2023-04-17T08:33:37.218Z,99810.56
2023-04-17T08:36:07.961Z,99809.81
2023-04-17T08:38:37.624Z,99810.88
2023-04-17T08:41:12.987Z,99809.47
2023-04-17T08:43:43.778Z,99809.13
2023-04-17T08:46:12.043Z,99809.34
2023-04-17T08:48:40.180Z,99812.22
2023-04-17T08:51:08.647Z,99815.59
2023-04-17T08:53:36.621Z,99813.78
2023-04-17T08:56:08.931Z,99817.50
2023-04-17T08:58:37.961Z,99811.84
2023-04-17T09:01:17.739Z,99821.56
2023-04-17T09:03:52.311Z,99815.66
2023-04-17T09:06:20.937Z,99821.09
2023-04-17T09:09:02.263Z,99821.25
2023-04-17T09:11:30.754Z,99830.63
2023-04-17T09:13:59.080Z,99834.06
2023-04-17T09:16:29.342Z,99838.25
2023-04-17T09:19:07.089Z,99831.25
2023-04-17T09:21:35.545Z,99840.47
2023-04-17T09:24:05.549Z,99841.06
2023-04-17T09:26:33.530Z,99832.31
2023-04-17T09:29:04.109Z,99828.66
2023-04-17T09:31:34.949Z,99839.94
2023-04-17T09:34:09.436Z,99841.78
2023-04-17T09:36:41.702Z,99845.13
2023-04-17T09:39:24.729Z,99841.22
2023-04-17T09:42:05.848Z,99840.09
2023-04-17T09:44:37.148Z,99838.25
2023-04-17T09:47:07.839Z,99843.63
2023-04-17T09:49:52.881Z,99844.44
2023-04-17T09:52:23.775Z,99841.31
2023-04-17T09:54:54.245Z,99841.47
2023-04-17T09:57:22.533Z,99845.13
2023-04-17T09:59:51.817Z,99846.72
2023-04-17T10:02:21.969Z,99845.91
2023-04-17T10:04:50.366Z,99840.81
2023-04-17T10:07:18.780Z,99841.06
2023-04-17T10:09:47.895Z,99850.69
2023-04-17T10:12:20.546Z,99846.97
2023-04-17T10:14:51.922Z,99847.66
2023-04-17T10:17:34.919Z,99849.56
2023-04-17T10:20:18.379Z,99852.50
2023-04-17T10:22:54.838Z,99853.81
2023-04-17T10:25:23.333Z,99858.41
2023-04-17T10:27:53.705Z,99864.78
2023-04-17T10:30:23.538Z,99867.38
2023-04-17T10:33:20.126Z,99871.69
2023-04-17T10:35:48.756Z,99872.00
2023-04-17T10:38:18.677Z,99867.84
2023-04-17T10:40:47.092Z,99870.84
2023-04-17T10:43:23.565Z,99866.47
2023-04-17T10:46:02.260Z,99864.66
2023-04-17T10:48:53.076Z,99867.31
2023-04-17T10:51:28.276Z,99866.31
2023-04-17T10:54:01.640Z,99868.13
2023-04-17T10:56:31.009Z,99867.56
2023-04-17T10:59:02.124Z,99865.44
2023-04-17T11:01:53.292Z,99870.22
2023-04-17T11:04:29.949Z,99864.56
2023-04-17T11:06:58.910Z,99869.91
2023-04-17T11:09:29.719Z,99864.59
2023-04-17T11:12:02.338Z,99869.94
2023-04-17T11:14:31.303Z,99869.69
2023-04-17T11:16:59.741Z,99869.28
2023-04-17T11:19:28.531Z,99875.56
2023-04-17T11:22:01.782Z,99877.19
2023-04-17T11:24:32.464Z,99874.81
2023-04-17T11:27:02.151Z,99883.06
2023-04-17T11:29:31.838Z,99871.72
2023-04-17T11:32:01.381Z,99876.03
2023-04-17T11:34:30.425Z,99880.66
2023-04-17T11:37:00.946Z,99881.38
2023-04-17T11:39:34.342Z,99880.50
2023-04-17T11:42:03.845Z,99885.44
2023-04-17T11:44:31.997Z,99889.25
2023-04-17T11:47:00.805Z,99887.59
2023-04-17T11:49:39.364Z,99877.50
2023-04-17T11:52:07.514Z,99882.59
2023-04-17T11:54:38.110Z,99876.84
2023-04-17T11:57:15.041Z,99880.91
2023-04-17T11:59:45.125Z,99885.41
2023-04-17T12:02:15.488Z,99886.78
2023-04-17T12:04:43.975Z,99883.16
2023-04-17T12:07:26.294Z,99880.34
2023-04-17T12:09:58.613Z,99887.22
2023-04-17T12:12:26.934Z,99888.75
2023-04-17T12:14:55.000Z,99888.50
2023-04-17T12:17:23.156Z,99888.75
2023-04-17T12:19:51.307Z,99884.81
2023-04-17T12:22:19.653Z,99891.28
2023-04-17T12:24:49.085Z,99885.41
2023-04-17T12:27:17.553Z,99893.53
2023-04-17T12:29:45.746Z,99889.44
2023-04-17T12:32:16.281Z,99891.41
2023-04-17T12:34:44.607Z,99888.06
2023-04-17T12:37:12.540Z,99895.63
2023-04-17T12:39:40.801Z,99899.97
2023-04-17T12:42:09.139Z,99892.25
2023-04-17T12:44:37.134Z,99899.56
2023-04-17T12:47:05.298Z,99886.63
2023-04-17T12:49:33.470Z,99889.03
2023-04-17T12:52:03.695Z,99891.81
2023-04-17T12:54:33.290Z,99890.28
2023-04-17T12:57:01.771Z,99885.97
2023-04-17T12:59:29.801Z,99889.06
2023-04-17T13:01:58.063Z,99885.25
2023-04-17T13:04:26.243Z,99885.97
2023-04-17T13:06:54.476Z,99883.56
2023-04-17T13:09:22.863Z,99899.41
2023-04-17T13:11:50.937Z,99893.09
2023-04-17T13:14:18.945Z,99896.59
2023-04-17T13:16:48.907Z,99898.00
2023-04-17T13:19:17.642Z,99894.19
2023-04-17T13:21:45.470Z,99904.28
2023-04-17T13:24:14.941Z,99900.09
2023-04-17T13:26:43.843Z,99896.56
2023-04-17T13:29:12.369Z,99892.66
2023-04-17T13:31:41.186Z,99899.69
2023-04-17T13:34:11.501Z,99892.41
2023-04-17T13:36:39.481Z,99886.22
2023-04-17T13:39:07.597Z,99885.66
2023-04-17T13:41:36.951Z,99892.38
2023-04-17T13:44:05.063Z,99883.56
2023-04-17T13:46:33.437Z,99891.41
2023-04-17T13:49:01.860Z,99881.16
2023-04-17T13:51:29.957Z,99880.75
2023-04-17T13:54:01.183Z,99883.06
2023-04-17T13:56:29.346Z,99872.31
2023-04-17T13:58:58.635Z,99879.84
2023-04-17T14:01:26.848Z,99875.56
2023-04-17T14:03:55.348Z,99875.72
2023-04-17T14:06:23.433Z,99869.81
2023-04-17T14:08:51.612Z,99873.34
2023-04-17T14:11:19.804Z,99876.56
2023-04-17T14:13:47.926Z,99874.88
2023-04-17T14:16:16.228Z,99870.56
2023-04-17T14:18:46.002Z,99874.75
2023-04-17T14:21:14.615Z,99869.41
2023-04-17T14:23:43.474Z,99873.91
2023-04-17T14:26:12.555Z,99870.09
2023-04-17T14:28:40.673Z,99876.84
2023-04-17T14:31:08.963Z,99875.00
2023-04-17T14:33:36.891Z,99875.31
2023-04-17T14:36:05.996Z,99872.38
2023-04-17T14:38:34.692Z,99872.50
2023-04-17T14:41:02.781Z,99873.91
2023-04-17T14:43:30.821Z,99869.13
2023-04-17T14:45:58.967Z,99873.88
2023-04-17T14:48:27.008Z,99877.28
2023-04-17T14:50:55.018Z,99876.84
2023-04-17T14:53:23.324Z,99869.97
2023-04-17T14:55:51.739Z,99879.09
2023-04-17T14:58:22.734Z,99876.13
2023-04-17T15:00:50.846Z,99872.22
2023-04-17T15:03:18.867Z,99870.81
2023-04-17T15:05:47.486Z,99871.09
2023-04-17T15:08:15.662Z,99876.66
2023-04-17T15:10:50.841Z,99870.38
2023-04-17T15:13:19.717Z,99878.38
2023-04-17T15:15:47.633Z,99870.69
2023-04-17T15:18:15.656Z,99858.19
2023-04-17T15:20:43.704Z,99871.25
2023-04-17T15:23:11.715Z,99872.34
2023-04-17T15:25:40.258Z,99870.94
2023-04-17T15:28:08.826Z,99874.88
2023-04-17T15:30:36.852Z,99879.34
2023-04-17T15:33:08.526Z,99869.69
2023-04-17T15:35:39.412Z,99875.69
2023-04-17T15:38:08.328Z,99868.75
2023-04-17T15:40:36.597Z,99865.81
2023-04-17T15:43:04.849Z,99862.34
2023-04-17T15:45:32.806Z,99867.94
2023-04-17T15:48:01.867Z,99875.41
2023-04-17T15:50:30.431Z,99872.34
2023-04-17T15:52:58.517Z,99870.09
2023-04-17T15:55:26.809Z,99872.63
2023-04-17T15:57:55.444Z,99870.53
2023-04-17T16:00:23.688Z,99877.94
2023-04-17T16:02:52.312Z,99875.28
2023-04-17T16:05:21.472Z,99878.22
2023-04-17T16:07:49.614Z,99870.09
2023-04-17T16:10:19.082Z,99872.78
2023-04-17T16:12:47.684Z,99883.97
2023-04-17T16:15:18.082Z,99884.41
2023-04-17T16:17:48.810Z,99879.75
2023-04-17T16:20:17.793Z,99879.47
2023-04-17T16:22:45.782Z,99880.31
2023-04-17T16:25:14.001Z,99887.31
2023-04-17T16:27:42.177Z,99885.16
2023-04-17T16:30:11.593Z,99883.38
2023-04-17T16:32:39.985Z,99891.75
2023-04-17T16:35:08.930Z,99886.28
2023-04-17T16:37:37.694Z,99894.69
2023-04-17T16:40:06.924Z,99889.75
2023-04-17T16:42:35.286Z,99900.41
2023-04-17T16:45:04.123Z,99901.66
2023-04-17T16:47:33.189Z,99904.75
2023-04-17T16:50:01.445Z,99902.34
2023-04-17T16:52:29.898Z,99908.94
2023-04-17T16:54:59.628Z,99920.59
2023-04-17T16:57:27.905Z,99913.25
2023-04-17T16:59:55.869Z,99913.84
2023-04-17T17:02:24.070Z,99919.03
2023-04-17T17:04:52.488Z,99922.53
2023-04-17T17:07:20.616Z,99923.63
2023-04-17T17:09:49.044Z,99926.97
2023-04-17T17:12:17.229Z,99929.78
2023-04-17T17:14:46.181Z,99927.50
2023-04-17T17:17:14.360Z,99924.53
2023-04-17T17:19:42.712Z,99924.81
2023-04-17T17:22:13.810Z,99930.84
2023-04-17T17:24:42.115Z,99923.25
2023-04-17T17:27:10.258Z,99933.88
2023-04-17T17:29:41.349Z,99939.63
2023-04-17T17:32:09.768Z,99939.63
2023-04-17T17:34:38.088Z,99928.69
2023-04-17T17:37:06.528Z,99945.88
2023-04-17T17:39:35.251Z,99939.75
2023-04-17T17:42:32.918Z,99944.22
2023-04-17T17:45:01.225Z,99949.25
2023-04-17T17:47:29.663Z,99951.63
2023-04-17T17:49:57.738Z,99948.69
2023-04-17T17:52:26.015Z,99949.41
2023-04-17T17:54:54.241Z,99960.19
2023-04-17T17:57:22.155Z,99963.56
2023-04-17T17:59:50.521Z,99967.44
2023-04-17T18:02:18.641Z,99966.47
2023-04-17T18:04:46.815Z,99964.66
2023-04-17T18:07:15.451Z,99959.59
2023-04-17T18:09:44.374Z,99971.09
2023-04-17T18:12:12.245Z,99977.13
2023-04-17T18:14:40.608Z,99972.47
2023-04-17T18:17:08.536Z,99974.19
2023-04-17T18:19:41.055Z,99972.75
2023-04-17T18:22:09.515Z,99975.81
2023-04-17T18:24:38.010Z,99973.03
2023-04-17T18:27:06.129Z,99984.75
2023-04-17T18:29:34.220Z,99989.47
2023-04-17T18:32:03.719Z,99980.28
2023-04-17T18:34:31.882Z,99989.47
2023-04-17T18:37:00.636Z,99982.91
2023-04-17T18:39:29.019Z,99978.41
2023-04-17T18:41:58.117Z,99982.03
2023-04-17T18:44:26.365Z,99979.97
2023-04-17T18:46:55.068Z,99985.44
2023-04-17T18:49:25.182Z,99977.94
2023-04-17T18:51:54.146Z,99984.84
2023-04-17T18:54:23.197Z,99980.63
2023-04-17T18:56:51.346Z,99982.81
2023-04-17T18:59:21.380Z,99983.53
2023-04-17T19:01:50.309Z,99980.44
2023-04-17T19:04:18.677Z,99985.03
2023-04-17T19:06:46.650Z,99985.47
2023-04-17T19:09:14.783Z,99986.59
2023-04-17T19:11:43.108Z,99991.19
2023-04-17T19:14:11.421Z,99994.00
2023-04-17T19:16:39.745Z,99991.47
2023-04-17T19:19:08.571Z,99981.19
2023-04-17T19:21:37.599Z,99984.44
2023-04-17T19:24:06.936Z,99983.72
2023-04-17T19:26:35.130Z,99985.09
2023-04-17T19:29:04.882Z,99994.50
2023-04-17T19:31:33.548Z,99992.38
2023-04-17T19:34:01.895Z,99996.69
2023-04-17T19:36:30.377Z,99995.03
2023-04-17T19:38:59.995Z,99994.56
2023-04-17T19:41:28.695Z,99994.78
2023-04-17T19:43:57.020Z,99994.56
2023-04-17T19:46:26.119Z,99992.03
2023-04-17T19:48:54.806Z,99995.66
2023-04-17T19:51:23.025Z,99985.03
2023-04-17T19:53:53.447Z,99990.13
2023-04-17T19:56:21.760Z,99986.13
2023-04-17T19:58:50.253Z,99981.06
2023-04-17T20:01:18.422Z,99982.91
2023-04-17T20:03:47.226Z,99977.00
2023-04-17T20:06:15.637Z,99979.78
2023-04-17T20:08:43.814Z,99978.22
2023-04-17T20:11:12.505Z,99977.34
2023-04-17T20:13:40.729Z,99977.22
2023-04-17T20:16:09.039Z,99972.03
2023-04-17T20:18:38.355Z,99972.16
2023-04-17T20:21:06.541Z,99964.59
2023-04-17T20:23:35.506Z,99964.72
2023-04-17T20:26:04.490Z,99971.59
2023-04-17T20:28:32.795Z,99973.41
2023-04-17T20:31:00.851Z,99973.41
2023-04-17T20:33:29.155Z,99976.44
2023-04-17T20:35:57.354Z,99971.97
2023-04-17T20:38:25.975Z,99968.59
2023-04-17T20:40:54.871Z,99975.34
2023-04-17T20:43:23.238Z,99975.34
2023-04-17T20:45:51.630Z,99983.31
2023-04-17T20:48:20.037Z,99975.50
2023-04-17T20:50:48.589Z,99979.94
2023-04-17T20:53:16.493Z,99983.56
2023-04-17T20:55:47.148Z,99986.34
2023-04-17T20:58:15.314Z,99981.63
2023-04-17T21:00:57.912Z,99982.72
2023-04-17T21:03:33.765Z,99977.56
2023-04-17T21:06:01.971Z,99973.78
2023-04-17T21:08:29.944Z,99984.28
2023-04-17T21:10:58.135Z,99970.66
2023-04-17T21:13:26.597Z,99978.63
2023-04-17T21:15:55.190Z,99975.00
2023-04-17T21:18:23.536Z,99981.16
2023-04-17T21:20:51.593Z,99979.34
2023-04-17T21:23:20.642Z,99988.19
2023-04-17T21:25:52.776Z,99979.63
2023-04-17T21:28:21.053Z,99981.41
2023-04-17T21:30:49.125Z,99986.59
2023-04-17T21:33:17.932Z,99983.34
2023-04-17T21:35:46.320Z,99982.50
2023-04-17T21:38:14.721Z,99979.03
2023-04-17T21:40:51.178Z,99977.31
2023-04-17T21:43:19.754Z,99973.72
2023-04-17T21:45:48.103Z,99976.50
2023-04-17T21:48:16.595Z,99976.59
2023-04-17T21:50:44.616Z,99973.84
2023-04-17T21:53:12.747Z,99980.97
2023-04-17T21:55:40.990Z,99975.66
2023-04-17T21:58:09.070Z,99980.09
2023-04-17T22:00:37.249Z,99973.00
2023-04-17T22:03:05.412Z,99983.47
2023-04-17T22:05:33.414Z,99978.56
2023-04-17T22:08:01.652Z,99977.25
2023-04-17T22:10:30.117Z,99987.47
2023-04-17T22:12:58.422Z,99982.03
2023-04-17T22:15:26.508Z,99973.47
2023-04-17T22:17:54.536Z,99983.28
2023-04-17T22:20:22.578Z,99978.19
2023-04-17T22:22:50.649Z,99972.06
2023-04-17T22:25:18.700Z,99977.13
2023-04-17T22:27:47.186Z,99969.41
2023-04-17T22:30:15.381Z,99975.53
2023-04-17T22:32:43.335Z,99983.41
2023-04-17T22:35:11.248Z,99972.06
2023-04-17T22:37:39.293Z,99967.84
2023-04-17T22:40:08.254Z,99964.47
2023-04-17T22:42:36.324Z,99968.09
2023-04-17T22:45:05.273Z,99968.09
2023-04-17T22:47:33.400Z,99966.16
2023-04-17T22:50:02.515Z,99957.34
2023-04-17T22:52:30.891Z,99964.00
2023-04-17T22:54:58.999Z,99962.31
2023-04-17T22:57:27.029Z,99962.06
2023-04-17T22:59:56.009Z,99957.03
2023-04-17T23:02:24.630Z,99961.34
2023-04-17T23:04:52.960Z,99954.63
2023-04-17T23:07:21.413Z,99957.03
2023-04-17T23:09:49.934Z,99951.38
2023-04-17T23:12:18.063Z,99951.97
2023-04-17T23:14:46.226Z,99952.31
2023-04-17T23:17:14.571Z,99946.75
2023-04-17T23:19:42.769Z,99946.88
2023-04-17T23:22:11.078Z,99953.19
2023-04-17T23:24:39.067Z,99954.50
2023-04-17T23:27:08.197Z,99946.41
2023-04-17T23:29:36.633Z,99949.34
2023-04-17T23:32:06.570Z,99952.84
2023-04-17T23:34:34.583Z,99937.16
2023-04-17T23:37:02.931Z,99936.31
2023-04-17T23:39:31.235Z,99953.19
2023-04-17T23:42:07.346Z,99938.50
2023-04-17T23:44:35.659Z,99947.81
2023-04-17T23:47:04.651Z,99945.16
2023-04-17T23:49:34.472Z,99946.09
2023-04-17T23:52:02.624Z,99957.91
2023-04-17T23:54:30.756Z,99948.16
2023-04-17T23:56:58.799Z,99951.88
2023-04-17T23:59:26.622Z,99946.69
